createdAt,value
2018-10-03T00:02:21.030Z,1.37
2018-10-03T00:04:49.518Z,1.70
2018-10-03T00:07:17.967Z,1.40
2018-10-03T00:09:46.434Z,1.83
2018-10-03T00:12:14.879Z,1.50
2018-10-03T00:14:43.326Z,1.43
2018-10-03T00:17:11.765Z,1.20
2018-10-03T00:19:40.223Z,1.73
2018-10-03T00:22:08.686Z,1.87
2018-10-03T00:24:37.128Z,1.50
2018-10-03T00:27:05.671Z,1.30
2018-10-03T00:29:34.112Z,1.60
2018-10-03T00:32:02.561Z,1.43
2018-10-03T00:34:31.025Z,1.70
2018-10-03T00:36:59.479Z,1.30
2018-10-03T00:39:27.951Z,1.10
2018-10-03T00:41:56.391Z,1.53
2018-10-03T00:44:24.839Z,1.40
2018-10-03T00:46:53.285Z,1.10
2018-10-03T00:49:30.138Z,1.53
2018-10-03T00:51:58.598Z,1.67
2018-10-03T00:54:27.051Z,1.80
2018-10-03T00:56:55.514Z,1.73
2018-10-03T00:59:23.962Z,2.03
2018-10-03T01:01:52.406Z,1.63
2018-10-03T01:04:20.854Z,1.73
2018-10-03T01:06:49.322Z,1.80
2018-10-03T01:09:17.778Z,1.87
2018-10-03T01:11:46.243Z,2.23
2018-10-03T01:14:14.690Z,1.93
2018-10-03T01:16:43.150Z,1.97
2018-10-03T01:19:11.645Z,1.60
2018-10-03T01:21:40.096Z,1.67
2018-10-03T01:24:08.555Z,2.10
2018-10-03T01:26:37.007Z,1.90
2018-10-03T01:29:05.580Z,1.50
2018-10-03T01:31:34.018Z,1.30
2018-10-03T01:34:02.466Z,1.27
2018-10-03T01:36:30.943Z,1.50
2018-10-03T01:38:59.387Z,1.30
2018-10-03T01:41:27.853Z,1.70
2018-10-03T01:43:56.303Z,1.50
2018-10-03T01:46:24.774Z,1.43
2018-10-03T01:48:53.220Z,1.27
2018-10-03T01:51:21.675Z,1.77
2018-10-03T01:53:50.119Z,1.20
2018-10-03T01:56:18.566Z,1.13
2018-10-03T01:58:47.102Z,2.00
2018-10-03T02:01:15.551Z,1.60
2018-10-03T02:03:43.999Z,1.37
2018-10-03T02:06:12.489Z,1.53
2018-10-03T02:08:40.938Z,1.60
2018-10-03T02:11:09.411Z,1.47
2018-10-03T02:13:37.870Z,1.60
2018-10-03T02:16:06.324Z,1.63
2018-10-03T02:18:34.779Z,1.20
2018-10-03T02:21:03.245Z,1.53
2018-10-03T02:23:31.757Z,1.23
2018-10-03T02:26:00.233Z,2.10
2018-10-03T02:28:28.696Z,1.97
2018-10-03T02:30:57.225Z,2.00
2018-10-03T02:33:25.830Z,2.10
2018-10-03T02:35:54.286Z,1.77
2018-10-03T02:38:22.746Z,1.53
2018-10-03T02:40:51.262Z,1.93
2018-10-03T02:43:19.719Z,2.53
2018-10-03T02:45:48.183Z,1.93
2018-10-03T02:48:16.622Z,1.67
2018-10-03T02:50:45.074Z,2.00
2018-10-03T02:53:13.526Z,1.97
2018-10-03T02:55:41.978Z,1.60
2018-10-03T02:58:10.419Z,1.87
2018-10-03T03:00:38.860Z,1.90
2018-10-03T03:03:07.350Z,2.17
2018-10-03T03:05:35.811Z,2.00
2018-10-03T03:08:04.271Z,1.90
2018-10-03T03:10:32.983Z,1.80
2018-10-03T03:13:01.455Z,1.30
2018-10-03T03:15:29.913Z,1.87
2018-10-03T03:17:58.402Z,2.40
2018-10-03T03:20:26.859Z,1.53
2018-10-03T03:22:55.306Z,1.50
2018-10-03T03:25:23.748Z,1.87
2018-10-03T03:27:52.194Z,1.70
2018-10-03T03:30:20.646Z,1.57
2018-10-03T03:32:49.091Z,1.70
2018-10-03T03:35:17.586Z,1.57
2018-10-03T03:37:46.030Z,1.30
2018-10-03T03:40:14.482Z,1.80
2018-10-03T03:42:42.934Z,1.47
2018-10-03T03:45:11.378Z,1.50
2018-10-03T03:47:39.834Z,1.60
2018-10-03T03:50:08.280Z,1.70
2018-10-03T03:52:36.722Z,1.30
2018-10-03T03:55:05.826Z,1.50
2018-10-03T03:57:34.293Z,1.30
2018-10-03T04:00:02.854Z,1.50
2018-10-03T04:02:31.384Z,1.37
2018-10-03T04:04:59.891Z,1.70
2018-10-03T04:07:28.374Z,1.93
2018-10-03T04:09:56.834Z,1.70
2018-10-03T04:12:25.286Z,1.53
2018-10-03T04:14:53.748Z,1.90
2018-10-03T04:17:22.195Z,1.47
2018-10-03T04:19:50.663Z,1.60
2018-10-03T04:22:19.110Z,2.20
2018-10-03T04:24:47.559Z,1.53
2018-10-03T04:27:16.015Z,2.23
2018-10-03T04:29:44.467Z,2.30
2018-10-03T04:32:12.911Z,2.37
2018-10-03T04:34:41.379Z,1.77
2018-10-03T04:37:09.819Z,1.50
2018-10-03T04:39:38.266Z,2.00
2018-10-03T04:42:06.831Z,1.73
2018-10-03T04:44:35.271Z,2.30
2018-10-03T04:49:57.346Z,2.53
2018-10-03T04:52:25.830Z,2.57
2018-10-03T04:54:54.314Z,2.40
2018-10-03T04:57:22.759Z,2.23
2018-10-03T04:59:51.202Z,2.70
2018-10-03T05:02:19.717Z,1.90
2018-10-03T05:04:48.167Z,1.80
2018-10-03T05:07:16.611Z,2.20
2018-10-03T05:09:45.059Z,2.50
2018-10-03T05:12:13.510Z,1.77
2018-10-03T05:14:41.955Z,2.20
2018-10-03T05:17:10.409Z,1.90
2018-10-03T05:19:38.867Z,3.13
2018-10-03T05:22:07.306Z,2.40
2018-10-03T05:24:35.755Z,2.37
2018-10-03T05:27:04.219Z,3.00
2018-10-03T05:29:32.710Z,2.50
2018-10-03T05:32:01.169Z,4.70
2018-10-03T05:34:29.659Z,2.70
2018-10-03T05:36:58.123Z,3.03
2018-10-03T05:39:26.576Z,4.60
2018-10-03T05:41:55.034Z,4.20
2018-10-03T05:44:23.474Z,4.50
2018-10-03T05:46:51.929Z,2.53
2018-10-03T05:49:20.396Z,3.53
2018-10-03T05:51:48.846Z,3.20
2018-10-03T05:54:17.339Z,4.80
2018-10-03T05:56:45.786Z,4.13
2018-10-03T05:59:14.238Z,3.87
2018-10-03T06:01:42.682Z,2.30
2018-10-03T06:04:11.132Z,2.30
2018-10-03T06:06:39.574Z,2.07
2018-10-03T06:09:10.206Z,2.57
2018-10-03T06:11:38.988Z,2.30
2018-10-03T06:14:07.442Z,1.83
2018-10-03T06:16:35.887Z,2.10
2018-10-03T06:19:04.375Z,2.90
2018-10-03T06:21:33.377Z,2.90
2018-10-03T06:24:01.884Z,3.13
2018-10-03T06:26:30.365Z,3.20
2018-10-03T06:28:58.847Z,3.50
2018-10-03T06:31:27.308Z,3.33
2018-10-03T06:33:55.763Z,3.10
2018-10-03T06:36:24.240Z,2.50
2018-10-03T06:38:52.739Z,2.70
2018-10-03T06:41:21.199Z,3.10
2018-10-03T06:43:49.683Z,2.80
2018-10-03T06:46:18.122Z,3.63
2018-10-03T06:48:46.571Z,2.90
2018-10-03T06:51:15.010Z,3.03
2018-10-03T06:53:43.462Z,4.00
2018-10-03T06:56:11.938Z,3.47
2018-10-03T06:58:40.394Z,3.20
2018-10-03T07:01:08.970Z,3.07
2018-10-03T07:03:37.454Z,3.53
2018-10-03T07:06:05.946Z,3.17
2018-10-03T07:08:34.403Z,2.97
2018-10-03T07:11:02.863Z,3.40
2018-10-03T07:13:31.321Z,3.50
2018-10-03T07:15:59.779Z,3.80
2018-10-03T07:18:28.234Z,3.20
2018-10-03T07:20:56.688Z,4.10
2018-10-03T07:23:25.119Z,2.90
2018-10-03T07:25:53.591Z,2.00
2018-10-03T07:28:22.038Z,2.60
2018-10-03T07:30:50.483Z,1.80
2018-10-03T07:33:18.934Z,2.00
2018-10-03T07:35:47.398Z,2.50
2018-10-03T07:38:15.868Z,3.67
2018-10-03T07:40:44.342Z,2.73
2018-10-03T07:43:12.807Z,2.30
2018-10-03T07:45:41.271Z,1.87
2018-10-03T07:48:09.815Z,2.00
2018-10-03T07:50:38.222Z,1.77
2018-10-03T07:53:06.843Z,2.10
2018-10-03T07:55:35.311Z,2.67
2018-10-03T07:58:03.803Z,3.00
2018-10-03T08:00:32.470Z,1.90
2018-10-03T08:03:00.931Z,2.10
2018-10-03T08:05:29.851Z,2.00
2018-10-03T08:07:58.926Z,1.80
2018-10-03T08:10:27.390Z,2.00
2018-10-03T08:12:55.851Z,1.93
2018-10-03T08:15:24.303Z,1.87
2018-10-03T08:17:52.763Z,1.93
2018-10-03T08:20:21.266Z,1.67
2018-10-03T08:22:49.734Z,1.30
2018-10-03T08:25:18.194Z,1.40
2018-10-03T08:27:46.655Z,1.90
2018-10-03T08:30:15.150Z,1.50
2018-10-03T08:32:43.683Z,2.10
2018-10-03T08:35:12.100Z,2.30
2018-10-03T08:37:40.556Z,2.80
2018-10-03T08:40:09.204Z,2.60
2018-10-03T08:42:37.767Z,2.30
2018-10-03T08:45:06.684Z,2.03
2018-10-03T08:47:35.238Z,2.07
2018-10-03T08:50:04.087Z,2.27
2018-10-03T08:52:32.583Z,1.73
2018-10-03T08:55:01.075Z,1.80
2018-10-03T08:57:29.523Z,2.00
2018-10-03T08:59:57.987Z,2.00
2018-10-03T09:02:26.427Z,2.13
2018-10-03T09:04:54.946Z,1.70
2018-10-03T09:07:23.499Z,2.10
2018-10-03T09:09:51.950Z,2.37
2018-10-03T09:12:20.406Z,2.17
2018-10-03T09:14:48.870Z,1.90
2018-10-03T09:17:17.338Z,2.00
2018-10-03T09:19:45.786Z,2.60
2018-10-03T09:22:14.238Z,2.10
2018-10-03T09:24:42.705Z,2.10
2018-10-03T09:27:11.169Z,2.17
2018-10-03T09:29:39.658Z,2.03
2018-10-03T09:32:08.187Z,2.60
2018-10-03T09:34:36.640Z,1.80
2018-10-03T09:37:05.139Z,1.90
2018-10-03T09:39:33.654Z,2.00
2018-10-03T09:42:02.063Z,2.00
2018-10-03T09:44:30.605Z,2.37
2018-10-03T09:46:59.022Z,2.50
2018-10-03T09:49:27.471Z,1.90
2018-10-03T09:51:55.933Z,2.60
2018-10-03T09:54:24.391Z,3.00
2018-10-03T09:56:52.839Z,2.70
2018-10-03T09:59:21.296Z,2.50
2018-10-03T10:01:49.751Z,2.20
2018-10-03T10:04:18.211Z,2.13
2018-10-03T10:06:46.662Z,2.30
2018-10-03T10:09:15.096Z,1.87
2018-10-03T10:11:43.666Z,2.00
2018-10-03T10:14:12.056Z,1.87
2018-10-03T10:16:40.512Z,2.30
2018-10-03T10:19:08.966Z,2.87
2018-10-03T10:21:37.430Z,3.00
2018-10-03T10:24:05.910Z,2.40
2018-10-03T10:26:34.359Z,2.47
2018-10-03T10:29:02.826Z,2.70
2018-10-03T10:31:31.342Z,2.07
2018-10-03T10:33:59.799Z,2.03
2018-10-03T10:36:28.258Z,1.90
2018-10-03T10:38:56.720Z,1.87
2018-10-03T10:41:25.331Z,1.90
2018-10-03T10:43:53.684Z,2.10
2018-10-03T10:46:22.151Z,2.10
2018-10-03T10:48:50.614Z,1.90
2018-10-03T10:51:19.063Z,2.10
2018-10-03T10:53:47.535Z,2.10
2018-10-03T10:56:16.002Z,2.13
2018-10-03T10:58:44.500Z,1.77
2018-10-03T11:01:12.983Z,1.90
2018-10-03T11:03:41.443Z,2.00
2018-10-03T11:06:09.938Z,2.00
2018-10-03T11:08:38.362Z,1.87
2018-10-03T11:11:06.851Z,1.90
2018-10-03T11:13:35.306Z,1.80
2018-10-03T11:16:03.796Z,2.00
2018-10-03T11:18:32.322Z,2.40
2018-10-03T11:21:00.779Z,1.90
2018-10-03T11:23:29.298Z,1.70
2018-10-03T11:25:58.049Z,2.07
2018-10-03T11:28:26.510Z,1.90
2018-10-03T11:30:54.966Z,2.27
2018-10-03T11:33:23.458Z,2.23
2018-10-03T11:35:51.931Z,2.03
2018-10-03T11:38:20.492Z,2.37
2018-10-03T11:40:48.867Z,1.90
2018-10-03T11:43:17.322Z,2.63
2018-10-03T11:45:45.794Z,1.97
2018-10-03T11:48:14.239Z,1.93
2018-10-03T11:50:42.781Z,2.20
2018-10-03T11:53:11.182Z,2.20
2018-10-03T11:55:39.640Z,2.50
2018-10-03T11:58:08.126Z,2.70
2018-10-03T12:00:36.603Z,2.13
2018-10-03T12:03:05.104Z,2.00
2018-10-03T12:05:33.590Z,2.10
2018-10-03T12:08:02.056Z,1.90
2018-10-03T12:10:30.520Z,2.07
2018-10-03T12:12:58.975Z,2.60
2018-10-03T12:15:27.430Z,2.53
2018-10-03T12:17:55.887Z,3.00
2018-10-03T12:20:24.410Z,2.40
2018-10-03T12:22:52.851Z,2.80
2018-10-03T12:25:21.378Z,2.40
2018-10-03T12:27:49.774Z,2.93
2018-10-03T12:30:18.223Z,2.00
2018-10-03T12:32:46.675Z,2.77
2018-10-03T12:35:19.356Z,2.83
2018-10-03T12:37:47.807Z,3.10
2018-10-03T12:40:16.275Z,2.70
2018-10-03T12:42:44.726Z,2.60
2018-10-03T12:45:13.261Z,2.50
2018-10-03T12:47:41.663Z,2.53
2018-10-03T12:50:10.182Z,2.73
2018-10-03T12:52:38.683Z,2.90
2018-10-03T12:55:07.358Z,2.67
2018-10-03T12:57:35.923Z,3.80
2018-10-03T13:00:04.834Z,2.87
2018-10-03T13:02:33.284Z,2.83
2018-10-03T13:05:01.895Z,2.80
2018-10-03T13:07:30.334Z,2.40
2018-10-03T13:09:58.794Z,2.57
2018-10-03T13:12:27.258Z,2.70
2018-10-03T13:14:55.714Z,2.40
2018-10-03T13:17:24.173Z,2.13
2018-10-03T13:19:59.075Z,2.77
2018-10-03T13:22:27.534Z,2.23
2018-10-03T13:24:55.982Z,2.27
2018-10-03T13:27:24.436Z,2.20
2018-10-03T13:29:52.899Z,2.20
2018-10-03T13:32:21.379Z,2.33
2018-10-03T13:34:49.862Z,1.93
2018-10-03T13:37:18.358Z,2.30
2018-10-03T13:39:46.801Z,1.97
2018-10-03T13:42:15.282Z,2.30
2018-10-03T13:44:43.747Z,2.70
2018-10-03T13:47:12.197Z,2.03
2018-10-03T13:49:40.680Z,2.50
2018-10-03T13:52:09.194Z,2.93
2018-10-03T13:54:37.670Z,2.73
2018-10-03T13:57:06.210Z,2.43
2018-10-03T13:59:34.659Z,2.53
2018-10-03T14:02:03.115Z,2.60
2018-10-03T14:04:31.633Z,2.90
2018-10-03T14:07:00.091Z,3.10
2018-10-03T14:09:28.577Z,2.67
2018-10-03T14:11:57.034Z,3.07
2018-10-03T14:14:25.489Z,3.40
2018-10-03T14:16:53.946Z,3.00
2018-10-03T14:19:22.388Z,3.53
2018-10-03T14:21:50.846Z,3.90
2018-10-03T14:24:19.325Z,3.40
2018-10-03T14:26:47.770Z,3.20
2018-10-03T14:29:16.227Z,2.63
2018-10-03T14:31:44.689Z,2.90
2018-10-03T14:34:13.149Z,2.70
2018-10-03T14:36:41.623Z,3.23
2018-10-03T14:39:10.401Z,3.10
2018-10-03T14:41:38.851Z,2.30
2018-10-03T14:44:07.342Z,2.93
2018-10-03T14:46:35.901Z,3.10
2018-10-03T14:49:04.350Z,2.87
2018-10-03T14:51:32.875Z,2.60
2018-10-03T14:54:01.339Z,2.30
2018-10-03T14:56:29.815Z,2.73
2018-10-03T14:58:58.275Z,2.50
2018-10-03T15:01:26.728Z,2.60
2018-10-03T15:03:55.179Z,3.00
2018-10-03T15:06:23.664Z,3.20
2018-10-03T15:08:52.118Z,3.47
2018-10-03T15:11:20.570Z,3.30
2018-10-03T15:13:49.020Z,2.73
2018-10-03T15:16:17.492Z,3.87
2018-10-03T15:18:45.963Z,3.00
2018-10-03T15:21:14.431Z,3.30
2018-10-03T15:23:42.888Z,2.63
2018-10-03T15:26:11.345Z,2.70
2018-10-03T15:28:39.811Z,3.80
2018-10-03T15:31:08.294Z,2.80
2018-10-03T15:33:36.743Z,3.10
2018-10-03T15:36:05.214Z,2.87
2018-10-03T15:38:33.668Z,3.13
2018-10-03T15:41:02.129Z,2.63
2018-10-03T15:43:30.634Z,3.47
2018-10-03T15:45:59.122Z,3.30
2018-10-03T15:48:27.583Z,3.17
2018-10-03T15:50:56.054Z,3.20
2018-10-03T15:53:24.727Z,3.10
2018-10-03T15:55:53.187Z,3.67
2018-10-03T15:58:21.679Z,5.60
2018-10-03T16:00:50.160Z,5.03
2018-10-03T16:03:18.610Z,4.63
2018-10-03T16:05:47.070Z,4.60
2018-10-03T16:08:15.615Z,5.90
2018-10-03T16:10:44.110Z,5.33
2018-10-03T16:13:12.583Z,4.70
2018-10-03T16:15:41.054Z,4.27
2018-10-03T16:18:09.535Z,3.60
2018-10-03T16:20:38.007Z,3.17
2018-10-03T16:23:06.718Z,3.30
2018-10-03T16:25:35.191Z,3.20
2018-10-03T16:28:03.670Z,3.13
2018-10-03T16:30:32.134Z,3.37
2018-10-03T16:33:00.610Z,3.50
2018-10-03T16:35:29.087Z,3.13
2018-10-03T16:37:57.551Z,3.20
2018-10-03T16:40:26.107Z,3.53
2018-10-03T16:42:54.566Z,5.53
2018-10-03T16:45:23.059Z,6.77
2018-10-03T16:47:51.822Z,5.20
2018-10-03T16:50:20.298Z,5.47
2018-10-03T16:52:48.758Z,4.93
2018-10-03T16:55:17.271Z,4.63
2018-10-03T16:57:45.735Z,4.80
2018-10-03T17:00:14.342Z,4.07
2018-10-03T17:02:43.413Z,4.00
2018-10-03T17:05:11.998Z,3.60
2018-10-03T17:07:40.915Z,3.47
2018-10-03T17:10:09.533Z,4.10
2018-10-03T17:12:38.014Z,5.20
2018-10-03T17:15:06.495Z,6.30
2018-10-03T17:17:35.798Z,5.00
2018-10-03T17:20:04.463Z,4.00
2018-10-03T17:22:32.982Z,4.10
2018-10-03T17:25:01.454Z,4.23
2018-10-03T17:27:30.020Z,3.17
2018-10-03T17:29:58.451Z,3.87
2018-10-03T17:32:26.915Z,3.70
2018-10-03T17:34:55.383Z,3.80
2018-10-03T17:37:23.875Z,3.93
2018-10-03T17:39:52.366Z,4.33
2018-10-03T17:42:20.835Z,4.13
2018-10-03T17:44:49.387Z,4.77
2018-10-03T17:47:17.926Z,4.40
2018-10-03T17:49:46.382Z,4.43
2018-10-03T17:52:14.851Z,4.20
2018-10-03T17:54:43.330Z,3.70
2018-10-03T17:57:11.781Z,3.53
2018-10-03T17:59:40.239Z,3.37
2018-10-03T18:02:11.134Z,3.57
2018-10-03T18:04:39.601Z,3.30
2018-10-03T18:07:08.070Z,3.70
2018-10-03T18:09:36.538Z,2.00
2018-10-03T18:12:05.132Z,2.50
2018-10-03T18:14:33.614Z,2.30
2018-10-03T18:17:02.106Z,1.60
2018-10-03T18:19:30.655Z,1.67
2018-10-03T18:21:59.179Z,1.20
2018-10-03T18:24:27.720Z,1.17
2018-10-03T18:26:56.195Z,1.33
2018-10-03T18:29:24.710Z,1.20
2018-10-03T18:31:53.183Z,1.37
2018-10-03T18:34:21.650Z,1.40
2018-10-03T18:36:50.119Z,2.93
2018-10-03T18:39:18.623Z,3.50
2018-10-03T18:41:47.121Z,2.93
2018-10-03T18:44:15.603Z,2.63
2018-10-03T18:46:44.093Z,3.30
2018-10-03T18:49:12.555Z,2.87
2018-10-03T18:51:41.261Z,2.10
2018-10-03T18:54:09.856Z,2.50
2018-10-03T18:56:38.484Z,2.30
2018-10-03T18:59:07.238Z,2.30
2018-10-03T19:01:35.730Z,1.40
2018-10-03T19:04:04.304Z,1.90
2018-10-03T19:06:33.155Z,1.90
2018-10-03T19:09:01.663Z,2.13
2018-10-03T19:11:30.318Z,2.13
2018-10-03T19:13:58.916Z,1.43
2018-10-03T19:16:27.934Z,2.10
2018-10-03T19:18:56.414Z,1.73
2018-10-03T19:21:24.992Z,1.80
2018-10-03T19:23:53.442Z,1.47
2018-10-03T19:26:22.132Z,0.90
2018-10-03T19:28:50.496Z,1.63
2018-10-03T19:31:18.962Z,1.80
2018-10-03T19:33:47.419Z,1.77
2018-10-03T19:36:16.314Z,2.37
2018-10-03T19:38:44.755Z,2.43
2018-10-03T19:41:13.225Z,2.30
2018-10-03T19:43:41.672Z,2.20
2018-10-03T19:46:10.137Z,1.77
2018-10-03T19:48:38.593Z,2.30
2018-10-03T19:51:07.095Z,1.90
2018-10-03T19:53:36.703Z,1.90
2018-10-03T19:56:05.229Z,1.90
2018-10-03T19:58:33.699Z,1.63
2018-10-03T20:01:02.154Z,2.33
2018-10-03T20:03:30.856Z,2.40
2018-10-03T20:05:59.352Z,1.90
2018-10-03T20:08:27.835Z,2.03
2018-10-03T20:10:56.335Z,1.60
2018-10-03T20:13:24.874Z,1.50
2018-10-03T20:15:53.329Z,1.70
2018-10-03T20:18:22.338Z,2.00
2018-10-03T20:20:51.254Z,2.30
2018-10-03T20:23:19.862Z,2.40
2018-10-03T20:25:48.337Z,1.73
2018-10-03T20:28:17.092Z,3.73
2018-10-03T20:30:45.550Z,2.87
2018-10-03T20:33:14.003Z,3.10
2018-10-03T20:35:42.462Z,1.40
2018-10-03T20:38:10.922Z,1.50
2018-10-03T20:40:39.403Z,1.73
2018-10-03T20:43:07.886Z,1.30
2018-10-03T20:45:36.397Z,1.40
2018-10-03T20:48:05.791Z,1.73
2018-10-03T20:50:34.378Z,2.03
2018-10-03T20:53:02.847Z,1.77
2018-10-03T20:55:31.471Z,1.30
2018-10-03T20:57:59.934Z,1.60
2018-10-03T21:00:28.391Z,1.37
2018-10-03T21:02:56.830Z,1.17
2018-10-03T21:05:25.287Z,1.07
2018-10-03T21:07:53.734Z,1.50
2018-10-03T21:10:22.218Z,1.30
2018-10-03T21:12:50.671Z,1.57
2018-10-03T21:15:19.116Z,1.70
2018-10-03T21:17:47.597Z,1.07
2018-10-03T21:20:16.062Z,1.60
2018-10-03T21:22:44.526Z,1.40
2018-10-03T21:25:12.987Z,1.70
2018-10-03T21:27:41.434Z,1.50
2018-10-03T21:30:09.914Z,1.80
2018-10-03T21:32:38.617Z,1.50
2018-10-03T21:35:07.039Z,1.47
2018-10-03T21:37:35.594Z,1.23
2018-10-03T21:40:04.158Z,1.10
2018-10-03T21:42:32.949Z,1.30
2018-10-03T21:45:01.400Z,1.33
2018-10-03T21:47:29.877Z,1.63
2018-10-03T21:49:58.331Z,1.33
2018-10-03T21:52:26.774Z,1.40
2018-10-03T21:54:55.250Z,1.33
2018-10-03T21:57:23.712Z,1.30
2018-10-03T21:59:52.165Z,1.27
2018-10-03T22:02:20.614Z,1.23
2018-10-03T22:04:49.082Z,1.00
2018-10-03T22:07:17.538Z,0.90
2018-10-03T22:09:45.992Z,0.90
2018-10-03T22:12:14.449Z,0.87
2018-10-03T22:14:42.914Z,0.80
2018-10-03T22:17:15.582Z,0.70
2018-10-03T22:19:44.080Z,0.70
2018-10-03T22:22:12.567Z,0.70
2018-10-03T22:24:41.024Z,0.80
2018-10-03T22:27:09.486Z,0.70
2018-10-03T22:29:38.283Z,1.00
2018-10-03T22:32:07.131Z,0.80
2018-10-03T22:34:35.623Z,1.10
2018-10-03T22:37:04.078Z,0.70
2018-10-03T22:39:32.574Z,0.90
2018-10-03T22:42:01.014Z,1.60
2018-10-03T22:44:29.465Z,1.70
2018-10-03T22:46:57.911Z,1.60
2018-10-03T22:49:26.370Z,1.30
2018-10-03T22:51:54.906Z,1.00
2018-10-03T22:54:23.366Z,1.00
2018-10-03T22:56:51.886Z,1.10
2018-10-03T22:59:20.336Z,1.03
2018-10-03T23:01:48.830Z,1.00
2018-10-03T23:04:17.286Z,1.20
2018-10-03T23:06:46.019Z,1.17
2018-10-03T23:09:14.509Z,1.30
2018-10-03T23:11:42.943Z,1.07
2018-10-03T23:14:11.394Z,0.80
2018-10-03T23:16:39.879Z,1.03
2018-10-03T23:19:08.327Z,1.20
2018-10-03T23:21:36.774Z,1.10
2018-10-03T23:24:05.243Z,0.90
2018-10-03T23:26:36.638Z,1.00
2018-10-03T23:29:05.134Z,0.83
2018-10-03T23:31:33.774Z,0.70
2018-10-03T23:34:02.218Z,0.80
2018-10-03T23:36:30.726Z,0.93
2018-10-03T23:38:59.182Z,0.90
2018-10-03T23:41:27.628Z,0.80
2018-10-03T23:43:56.091Z,1.10
2018-10-03T23:46:24.545Z,1.20
2018-10-03T23:48:53.010Z,0.80
2018-10-03T23:51:21.466Z,1.03
2018-10-03T23:53:49.944Z,1.03
2018-10-03T23:56:18.394Z,0.80
2018-10-03T23:58:46.874Z,1.00
